Latest Coastal Weather Observations for Samuel Hill

IDQ60701

Issued at 11:21 am EST Friday 24 February 2017 (issued every 10 minutes, with the page automatically refreshed every 10 minutes)

About coastal observations | Map of coastal stations | Coastal observations for QLD | Marine services | Other Formats
Station Details ID: 033308 Name: SAMUEL HILL AERO Lat: -22.74 Lon: 150.66 Height: 31.0 m
Data from the previous 72 hours. | See also: Recent months at Samuel Hill
Date/Time
EST
Temp
°C
Wind Pressure Rain since
9am
mm
Weather Cloud Vis
km
Sea
Height
m
Swell
Dir  Spd
kts
Gust
kts
hPa Trend Height
m
Period
s
Dir
24/11:00am 27.3 SSE 9 14 1015.3 - 0.0 - Partly cloudy 10 - - - -
24/10:30am 27.1 SSE 10 15 1015.5 - 0.0 - Partly cloudy 10 - - - -
24/10:00am 27.5 SSE 9 15 1015.6 - 0.0 - Partly cloudy 10 - - - -
24/09:30am 25.4 SE 9 14 1015.7 - 0.0 - Partly cloudy 10 - - - -
24/09:00am 26.6 SSE 10 16 1015.7 - 0.0 - Mostly cloudy 10 - - - -
24/08:30am 26.3 SSE 9 14 1015.6 - 0.0 - Partly cloudy 10 - - - -
24/08:00am 25.5 SSE 8 12 1015.3 - 0.0 - Partly cloudy 10 - - - -
24/07:30am 24.6 SSE 7 10 1015.4 - 0.0 - Partly cloudy 10 - - - -
24/07:00am 24.2 SSE 7 10 1015.1 - 0.0 - Partly cloudy 10 - - - -
24/06:30am 24.2 SSE 6 10 1014.9 - 0.0 - Partly cloudy 10 - - - -
24/06:00am 24.5 SSE 7 11 1014.5 - 0.0 - Partly cloudy 10 - - - -
24/05:30am 25.0 SE 7 12 1014.3 - 0.0 - - 10 - - - -
24/05:00am 25.2 SE 6 11 1014.2 - 0.0 - Partly cloudy 10 - - - -
24/04:30am 25.3 SE 7 11 1014.2 - 0.0 - Partly cloudy 10 - - - -
24/04:00am 25.2 SE 7 10 1014.1 - 0.0 - Partly cloudy 10 - - - -
24/03:30am 25.2 SE 7 11 1013.9 - 0.0 - Partly cloudy 10 - - - -
24/03:00am 25.3 SE 6 8 1014.0 - 0.0 - Cloudy 10 - - - -
24/02:30am 25.5 SE 7 10 1014.2 - 0.0 - - 10 - - - -
24/02:00am 25.5 SE 7 10 1014.5 - 0.0 - - 10 - - - -
24/01:30am 25.6 ESE 9 15 1014.8 - 0.0 - - 10 - - - -
24/01:00am 25.5 ESE 6 9 1015.1 - 0.0 - - 10 - - - -
24/12:30am 25.6 ESE 8 15 1015.5 - 0.0 - Partly cloudy 10 - - - -
24/12:00am 25.8 ESE 8 13 1015.7 - 0.0 - Mostly clear 10 - - - -
 
Date/Time
EST
Temp
°C
Wind Pressure Rain since
9am
mm
Weather Cloud Vis
km
Sea
Height
m
Swell
Dir  Spd
kts
Gust
kts
hPa Trend Height
m
Period
s
Dir
23/11:30pm 25.6 ESE 7 10 1015.7 - 0.0 - Partly cloudy 10 - - - -
23/11:00pm 25.5 SE 6 9 1015.8 - 0.0 - Partly cloudy 10 - - - -
23/10:30pm 24.5 SSE 4 5 1015.9 - 0.0 - Partly cloudy 10 - - - -
23/10:00pm 24.2 SSE 3 6 1015.8 - 0.0 - Partly cloudy 10 - - - -
23/09:30pm 23.5 SSE 3 4 1015.8 - 0.0 - Partly cloudy 10 - - - -
23/09:00pm 23.7 S 3 5 1015.7 - 0.0 - - 10 - - - -
23/08:30pm 23.8 SSE 3 4 1015.4 - 0.0 - - 10 - - - -
23/08:00pm 24.1 SE 3 5 1015.1 - 0.0 - - 10 - - - -
23/07:30pm 24.6 SE 3 4 1014.8 - 0.0 - - 10 - - - -
23/07:00pm 25.2 ESE 4 6 1014.6 - 0.0 - - 10 - - - -
23/06:30pm 26.0 ESE 5 6 1014.4 - 0.0 - - 10 - - - -
23/06:00pm 27.2 ESE 7 10 1014.1 - 0.0 - - 10 - - - -
23/05:30pm 28.2 ESE 7 10 1013.9 - 0.0 - - 10 - - - -
23/05:00pm 28.4 ESE 7 11 1013.7 - 0.0 - - 10 - - - -
23/04:30pm 28.4 SE 8 13 1013.7 - 0.0 - Partly cloudy 10 - - - -
23/04:00pm 29.1 SE 9 15 1013.7 - 0.0 - Partly cloudy 10 - - - -
23/03:30pm 28.8 ESE 11 16 1013.8 - 0.0 - Partly cloudy 10 - - - -
23/03:00pm 29.1 SE 11 17 1014.1 - 0.0 - Mostly clear 10 - - - -
23/02:30pm 29.5 ESE 12 19 1014.2 - 0.0 - Partly cloudy 10 - - - -
23/02:00pm 29.7 SE 11 19 1014.5 - 0.0 - Partly cloudy 10 - - - -
23/01:30pm 29.7 SE 12 17 1014.8 - 0.0 - Partly cloudy 10 - - - -
23/01:00pm 28.4 ESE 9 16 1015.0 - 0.0 - Partly cloudy 10 - - - -
23/12:30pm 29.4 ESE 12 17 1015.3 - 0.0 - Partly cloudy 10 - - - -
23/12:00pm 28.2 SE 10 17 1015.6 - 0.0 - Mostly cloudy 10 - - - -
23/11:30am 29.0 ESE 11 17 1016.0 - 0.0 - Partly cloudy 10 - - - -
23/11:00am 28.5 SE 10 14 1016.3 - 0.0 - Partly cloudy 10 - - - -
23/10:30am 27.6 SE 10 16 1016.4 - 0.0 - Partly cloudy 10 - - - -
23/10:00am 28.1 SE 9 13 1016.5 - 0.0 - Partly cloudy 10 - - - -
23/09:30am 27.2 SE 11 15 1016.4 - 0.0 - Partly cloudy 10 - - - -
23/09:00am 28.8 SSE 8 13 1016.5 - 21.8 - Cloudy 10 - - - -
23/08:30am 27.0 SE 12 20 1016.3 - 21.8 - Partly cloudy 10 - - - -
23/08:00am 26.4 SE 9 15 1016.1 - 21.8 - Partly cloudy 10 - - - -
23/07:30am 26.4 SE 7 11 1015.9 - 21.8 - Cloudy 10 - - - -
23/07:00am 26.1 SE 6 11 1015.5 - 21.8 - Partly cloudy 10 - - - -
23/06:30am 25.9 SE 7 13 1015.3 - 21.8 - Partly cloudy 10 - - - -
23/06:00am 25.6 SE 7 11 1015.0 - 21.8 - Mostly cloudy 10 - - - -
23/05:30am 25.6 SE 7 10 1014.8 - 21.8 - Partly cloudy 10 - - - -
23/05:00am 25.4 ESE 7 11 1014.6 - 21.8 - Partly cloudy 10 - - - -
23/04:30am 25.3 SE 9 15 1014.2 - 21.8 - - 10 - - - -
23/04:00am 25.1 ESE 7 13 1014.2 - 21.8 - Partly cloudy 10 - - - -
23/03:30am 25.3 SE 8 11 1014.2 - 21.8 - Partly cloudy 10 - - - -
23/03:00am 25.3 SE 9 13 1014.1 - 21.8 - Mostly clear 10 - - - -
23/02:30am 25.5 SE 10 16 1014.2 - 21.8 - Partly cloudy 10 - - - -
23/02:00am 25.3 SE 8 13 1014.4 - 21.8 - Partly cloudy 10 - - - -
23/01:30am 25.4 SE 8 12 1014.7 - 21.8 - Partly cloudy 10 - - - -
23/01:00am 25.1 ESE 8 13 1014.8 - 21.8 - Partly cloudy 10 - - - -
23/12:30am 24.9 SE 7 10 1015.1 - 21.8 - Partly cloudy 10 - - - -
23/12:00am 24.9 SE 6 9 1015.6 - 21.8 - Mostly clear 10 - - - -
 
Date/Time
EST
Temp
°C
Wind Pressure Rain since
9am
mm
Weather Cloud Vis
km
Sea
Height
m
Swell
Dir  Spd
kts
Gust
kts
hPa Trend Height
m
Period
s
Dir
22/11:30pm 25.1 SE 6 11 1015.7 - 21.8 - - 10 - - - -
22/11:00pm 25.5 SE 7 10 1016.0 - 21.8 - - 10 - - - -
22/10:30pm 25.7 SE 8 14 1016.0 - 21.8 - - 10 - - - -
22/10:00pm 25.9 ESE 9 14 1015.8 - 21.8 - - 10 - - - -
22/09:30pm 26.1 ESE 11 19 1015.6 - 21.8 - - 10 - - - -
22/09:00pm 26.1 ESE 10 15 1015.4 - 21.8 - Mostly clear 10 - - - -
22/08:30pm 26.3 ESE 11 19 1015.0 - 21.8 - - 10 - - - -
22/08:00pm 26.4 ESE 9 15 1014.9 - 21.8 - Partly cloudy 10 - - - -
22/07:30pm 25.9 ESE 8 12 1014.6 - 21.8 - - 10 - - - -
22/07:00pm 25.9 ESE 7 11 1014.3 - 21.8 - - 10 - - - -
22/06:30pm 26.4 ESE 8 13 1014.1 - 21.8 - - 10 - - - -
22/06:00pm 26.9 ESE 9 18 1013.9 - 21.8 - - 10 - - - -
22/05:30pm 27.6 ESE 11 20 1013.8 - 21.8 - Partly cloudy 10 - - - -
22/05:00pm 27.8 ESE 11 19 1013.7 - 21.8 - Partly cloudy 10 - - - -
22/04:30pm 27.7 SE 11 19 1013.6 - 21.8 - Partly cloudy 10 - - - -
22/04:00pm 27.8 ESE 10 17 1013.4 - 21.8 - Partly cloudy 10 - - - -
22/03:30pm 28.6 ESE 13 20 1013.3 - 21.8 - Partly cloudy 10 - - - -
22/03:00pm 28.4 SE 12 19 1013.3 - 21.8 - Cloudy 10 - - - -
22/02:30pm 27.9 SE 12 20 1013.5 - 21.8 - Partly cloudy 10 - - - -
22/02:00pm 28.2 SE 10 17 1013.5 - 21.8 - Partly cloudy 10 - - - -
22/01:30pm 28.7 SE 13 18 1013.7 - 21.8 - Partly cloudy 10 - - - -
22/01:00pm 28.7 SE 13 20 1014.0 - 21.8 - Partly cloudy 10 - - - -
22/12:30pm 27.8 SE 9 15 1014.4 - 21.8 - Partly cloudy 10 - - - -
22/12:00pm 25.1 ESE 6 9 1014.9 - 21.8 Showers Mostly cloudy 10 - - - -
22/11:51am 25.0 E 5 7 1015.0 - 21.8 - Partly cloudy 10 - - - -
22/11:30am 24.1 SE 7 12 1015.3 - 21.0 - Partly cloudy 4 - - - -
22/11:07am 24.1 ENE 11 22 1015.3 - 12.6 - Partly cloudy 7 - - - -
22/11:00am 25.5 E 7 13 1015.3 - 11.4 - Partly cloudy 10 - - - -
22/10:30am 25.4 SE 8 12 1015.5 - 11.2 - Partly cloudy 9 - - - -
22/10:18am 25.4 SE 8 12 1015.6 - 10.8 - Partly cloudy 10 - - - -
22/10:00am 23.9 SE 11 16 1015.7 - 10.8 - Partly cloudy 5 - - - -
22/09:34am 25.5 SE 10 16 1015.8 - 2.6 - Partly cloudy 6 - - - -
22/09:30am 26.7 SE 10 17 1015.6 - 0.0 - Partly cloudy 10 - - - -
22/09:00am 26.8 SE 8 13 1015.7 - 15.4 Showers Cloudy 10 - - - -
22/08:30am 25.6 SSE 6 9 1015.5 - 15.4 - Partly cloudy 10 - - - -
22/08:23am 25.2 SSE 5 9 1015.5 - 15.4 - Partly cloudy 10 - - - -
22/08:00am 24.3 SE 7 12 1015.6 - 14.2 - Partly cloudy 7 - - - -
22/07:30am 25.0 S 3 5 1015.4 - 13.2 - Partly cloudy 10 - - - -
22/07:04am 24.3 SE 2 4 1015.4 - 13.2 - Partly cloudy 10 - - - -
22/07:00am 24.1 E 2 4 1015.3 - 13.2 - Partly cloudy 10 - - - -
22/06:32am 23.6 S 7 14 1015.2 - 7.2 - Partly cloudy 6 - - - -
22/06:30am 23.7 S 7 14 1015.1 - 6.4 - Partly cloudy 9 - - - -
22/06:18am 23.6 W 5 8 1014.9 - 5.8 - Partly cloudy 10 - - - -
22/06:00am 23.5 SSW 5 9 1014.7 - 5.4 Showers Cloudy 6 - - - -
22/05:59am 23.5 SSW 5 9 1014.8 - 5.4 - Partly cloudy 7 - - - -
22/05:54am 23.6 SE 3 7 1014.7 - 4.2 - Partly cloudy 10 - - - -
22/05:30am 23.6 NNW 3 5 1014.5 - 4.2 - Partly cloudy 10 - - - -
22/05:00am 23.5 NNE 5 6 1014.2 - 4.2 - Partly cloudy 10 - - - -
22/04:58am 23.6 NNE 5 6 1014.2 - 4.2 - Partly cloudy 10 - - - -
22/04:35am 23.7 ESE 6 9 1014.1 - 2.8 - Partly cloudy 7 - - - -
22/04:30am 24.0 E 6 9 1014.1 - 2.2 - Partly cloudy 10 - - - -
22/04:00am 24.3 CALM 0 0 1013.8 - 2.0 - Partly cloudy 10 - - - -
22/03:30am 24.1 E 3 4 1013.5 - 1.8 - Partly cloudy 10 - - - -
22/03:00am 24.4 E 8 13 1013.4 - 1.6 Rain Cloudy 10 - - - -
22/02:30am 24.6 SSE 4 5 1013.5 - 1.2 - Partly cloudy 10 - - - -
22/02:00am 24.4 ESE 6 10 1013.5 - 1.2 - Partly cloudy 10 - - - -
22/01:30am 24.0 SE 6 8 1013.8 - 1.2 - Partly cloudy 10 - - - -
22/01:19am 24.1 ESE 9 13 1013.9 - 1.2 - Partly cloudy 10 - - - -
22/01:04am 24.9 SE 7 15 1014.1 - 1.2 - Partly cloudy 7 - - - -
22/01:00am 24.2 SE 4 6 1014.0 - 0.6 - Partly cloudy 10 - - - -
22/12:30am 23.9 SE 3 5 1014.2 - 0.4 - - 10 - - - -
22/12:00am 24.4 E 3 4 1014.3 - 0.4 - Partly cloudy 10 - - - -
 
Date/Time
EST
Temp
°C
Wind Pressure Rain since
9am
mm
Weather Cloud Vis
km
Sea
Height
m
Swell
Dir  Spd
kts
Gust
kts
hPa Trend Height
m
Period
s
Dir
21/11:30pm 24.7 SSE 3 5 1014.3 - 0.4 - Partly cloudy 10 - - - -
21/11:00pm 25.3 ESE 7 11 1014.8 - 0.4 - Partly cloudy 10 - - - -
21/10:30pm 26.1 E 5 8 1014.6 - 0.2 - Partly cloudy 10 - - - -
21/10:00pm 26.2 ESE 5 8 1014.7 - 0.2 - - 10 - - - -
21/09:30pm 26.2 ESE 5 8 1014.6 - 0.2 - Partly cloudy 10 - - - -
21/09:00pm 25.9 ESE 5 6 1014.4 - 0.2 - Mostly clear 10 - - - -
21/08:30pm 26.3 E 5 7 1014.3 - 0.2 - Partly cloudy 10 - - - -
21/08:00pm 26.5 ESE 5 7 1014.1 - 0.2 - Partly cloudy 10 - - - -
21/07:30pm 26.7 E 5 7 1013.8 - 0.2 - - 10 - - - -
21/07:00pm 26.7 ESE 3 4 1013.6 - 0.2 - Partly cloudy 10 - - - -
21/06:30pm 27.4 ESE 5 8 1013.2 - 0.2 - - 10 - - - -
21/06:00pm 28.1 E 8 13 1013.0 - 0.2 - - 10 - - - -
21/05:30pm 28.7 ESE 7 11 1012.8 - 0.2 - - 10 - - - -
21/05:00pm 28.9 ESE 7 13 1012.4 - 0.2 - Partly cloudy 10 - - - -
21/04:30pm 30.0 E 10 14 1012.1 - 0.2 - Partly cloudy 10 - - - -
21/04:00pm 30.9 SE 10 14 1012.1 - 0.2 - Cloudy 10 - - - -
21/03:30pm 31.6 ESE 10 14 1012.0 - 0.2 - Partly cloudy 10 - - - -
21/03:00pm 30.2 ESE 10 16 1012.1 - 0.2 - Mostly clear 10 - - - -
21/02:30pm 31.2 SE 10 17 1012.4 - 0.2 - Partly cloudy 10 - - - -
21/02:00pm 31.3 ESE 11 15 1012.4 - 0.2 - Partly cloudy 10 - - - -
21/01:30pm 31.4 ESE 11 17 1012.7 - 0.2 - Partly cloudy 10 - - - -
21/01:00pm 31.5 SE 10 15 1012.9 - 0.0 - Partly cloudy 10 - - - -
21/12:30pm 28.3 SSE 7 10 1013.4 - 0.0 - Partly cloudy 10 - - - -
21/12:00pm 28.9 SSE 8 11 1013.7 - 0.0 Rain Mostly cloudy 10 - - - -
21/11:30am 31.6 SSE 9 14 1013.6 - 0.0 - Partly cloudy 10 - - - -

Other Formats:

Comma delimited format used in spreadsheet applications
http://www.bom.gov.au/fwo/IDQ60701/IDQ60701.94370.axf

JavaScript Object Notation format (JSON) in row-major order
http://www.bom.gov.au/fwo/IDQ60701/IDQ60701.94370.json